Time;durP1;ratioP1;P1;durP2;ratioP2;P2;SDS_P1;SDS_P2;PMS_P1;PMS_P2;Temp;Humidity;BMP_temperature;BMP_pressure;BME280_temperature;BME280_humidity;BME280_pressure;Samples;Min_cycle;Max_cycle;Signal;HPM_P1;HPM_P2
2021/10/19 00:01:07;;;;;;;5.45;4.00;;;;;;;;;;4990507;28;20217;-74
2021/10/19 00:03:35;;;;;;;4.45;4.05;;;;;;;;;;4987692;28;20707;-74
2021/10/19 00:06:02;;;;;;;4.78;4.28;;;;;;;;;;4991344;28;20201;-74
2021/10/19 00:08:29;;;;;;;5.10;3.97;;;;;;;;;;4984899;28;20354;-75
2021/10/19 00:10:56;;;;;;;6.32;4.95;;;;;;;;;;4991854;28;20204;-74
2021/10/19 00:13:23;;;;;;;4.03;3.70;;;;;;;;;;4992749;28;20665;-75
2021/10/19 00:15:51;;;;;;;3.72;3.42;;;;;;;;;;4994781;28;20239;-75
2021/10/19 00:18:18;;;;;;;4.95;4.28;;;;;;;;;;4993243;28;20561;-75
2021/10/19 00:20:46;;;;;;;4.55;4.15;;;;;;;;;;4992563;28;20204;-75
2021/10/19 00:23:13;;;;;;;4.05;3.20;;;;;;;;;;4991065;28;20197;-75
2021/10/19 00:25:40;;;;;;;6.00;4.53;;;;;;;;;;4991582;28;20213;-75
2021/10/19 00:28:08;;;;;;;5.68;5.03;;;;;;;;;;4993180;28;20710;-75
2021/10/19 00:30:35;;;;;;;4.63;4.22;;;;;;;;;;4992170;28;20315;-74
2021/10/19 00:33:02;;;;;;;4.70;4.30;;;;;;;;;;4989012;28;20205;-76
2021/10/19 00:35:29;;;;;;;5.10;4.60;;;;;;;;;;4989473;28;20245;-75
2021/10/19 00:37:57;;;;;;;4.38;3.97;;;;;;;;;;4988509;28;20202;-74
2021/10/19 00:40:24;;;;;;;6.40;4.57;;;;;;;;;;4989692;28;20653;-74
2021/10/19 00:42:51;;;;;;;4.32;3.92;;;;;;;;;;4987569;28;20218;-76
2021/10/19 00:45:18;;;;;;;5.80;4.50;;;;;;;;;;4985795;28;20206;-75
2021/10/19 00:47:49;;;;;;;5.13;4.63;;;;;;;;;;4983003;28;20660;-74
2021/10/19 00:50:16;;;;;;;5.43;4.93;;;;;;;;;;4979455;28;20462;-75
2021/10/19 00:52:43;;;;;;;4.55;4.15;;;;;;;;;;4988776;28;20193;-75
2021/10/19 00:55:12;;;;;;;5.28;4.78;;;;;;;;;;4987030;28;20711;-75
2021/10/19 00:57:40;;;;;;;4.90;4.40;;;;;;;;;;4988997;28;20620;-75
2021/10/19 01:00:08;;;;;;;5.25;4.53;;;;;;;;;;4988872;28;20205;-75
2021/10/19 01:02:35;;;;;;;4.18;3.78;;;;;;;;;;4987241;28;20229;-75
2021/10/19 01:05:02;;;;;;;4.38;3.97;;;;;;;;;;4989909;28;20716;-75
2021/10/19 01:07:30;;;;;;;4.95;4.45;;;;;;;;;;4979482;28;20225;-74
2021/10/19 01:09:57;;;;;;;5.07;4.40;;;;;;;;;;4993071;28;20213;-75
2021/10/19 01:12:25;;;;;;;4.43;4.03;;;;;;;;;;4991805;28;20240;-74
2021/10/19 01:14:52;;;;;;;4.00;3.60;;;;;;;;;;4991334;28;20201;-75
2021/10/19 01:17:19;;;;;;;5.57;4.80;;;;;;;;;;4983678;28;20198;-75
2021/10/19 01:19:49;;;;;;;4.20;3.80;;;;;;;;;;4989705;28;20251;-75
2021/10/19 01:22:17;;;;;;;4.90;4.50;;;;;;;;;;4989490;28;20218;-75
2021/10/19 01:24:44;;;;;;;4.47;4.07;;;;;;;;;;4991238;28;20201;-75
2021/10/19 01:27:11;;;;;;;3.95;3.50;;;;;;;;;;4992893;28;20232;-75
2021/10/19 01:29:38;;;;;;;4.60;4.20;;;;;;;;;;4992524;28;20201;-75
2021/10/19 01:32:06;;;;;;;5.10;4.60;;;;;;;;;;4991925;28;20193;-75
2021/10/19 01:34:34;;;;;;;4.30;3.90;;;;;;;;;;4992646;28;20681;-75
2021/10/19 01:37:02;;;;;;;4.10;3.70;;;;;;;;;;4991742;28;20197;-75
2021/10/19 01:39:29;;;;;;;4.95;4.40;;;;;;;;;;4991688;28;20197;-74
2021/10/19 01:41:56;;;;;;;6.20;4.68;;;;;;;;;;4992551;28;20221;-76
2021/10/19 01:44:23;;;;;;;5.40;4.18;;;;;;;;;;4991468;28;20194;-75
2021/10/19 01:46:50;;;;;;;4.10;3.70;;;;;;;;;;4991611;28;20665;-75
2021/10/19 01:49:17;;;;;;;4.30;3.90;;;;;;;;;;4993261;28;20482;-74
2021/10/19 01:51:44;;;;;;;4.45;3.97;;;;;;;;;;4991674;28;20260;-75
2021/10/19 01:54:13;;;;;;;3.95;3.13;;;;;;;;;;4991310;28;20213;-75
2021/10/19 01:56:39;;;;;;;4.00;3.70;;;;;;;;;;4991753;28;20677;-76
2021/10/19 01:59:06;;;;;;;5.55;5.05;;;;;;;;;;4990830;28;20237;-76
2021/10/19 02:01:33;;;;;;;4.60;4.00;;;;;;;;;;4991863;28;20750;-75
2021/10/19 02:04:00;;;;;;;6.35;3.70;;;;;;;;;;4981716;28;20256;-75
2021/10/19 02:06:27;;;;;;;4.55;4.15;;;;;;;;;;4984091;28;20209;-75
2021/10/19 02:08:54;;;;;;;5.55;4.25;;;;;;;;;;4984921;28;20208;-75
2021/10/19 02:11:23;;;;;;;4.35;3.95;;;;;;;;;;4990985;28;20532;-76
2021/10/19 02:13:50;;;;;;;5.28;4.43;;;;;;;;;;4991442;28;20197;-74
2021/10/19 02:16:17;;;;;;;4.70;4.30;;;;;;;;;;4991529;28;20198;-75
2021/10/19 02:18:44;;;;;;;4.43;4.03;;;;;;;;;;4992063;28;20275;-75
2021/10/19 02:21:11;;;;;;;5.50;4.65;;;;;;;;;;4991032;28;20213;-75
2021/10/19 02:23:38;;;;;;;5.38;4.43;;;;;;;;;;4990422;28;20234;-76
2021/10/19 02:26:05;;;;;;;3.90;3.60;;;;;;;;;;4991627;28;20213;-76
2021/10/19 02:28:33;;;;;;;4.50;4.10;;;;;;;;;;4994939;28;20441;-76
2021/10/19 02:31:00;;;;;;;4.55;4.15;;;;;;;;;;4997407;28;20222;-75
2021/10/19 02:33:27;;;;;;;5.22;4.45;;;;;;;;;;4991581;28;20247;-76
2021/10/19 02:35:54;;;;;;;5.80;5.20;;;;;;;;;;4991446;28;20612;-75
2021/10/19 02:38:21;;;;;;;5.03;4.28;;;;;;;;;;4993169;28;20202;-74
2021/10/19 02:40:48;;;;;;;4.15;3.85;;;;;;;;;;4994782;28;20623;-74
2021/10/19 02:43:15;;;;;;;5.72;5.03;;;;;;;;;;4998639;28;20217;-75
2021/10/19 02:45:44;;;;;;;5.00;4.28;;;;;;;;;;5001897;28;20212;-75
2021/10/19 02:48:11;;;;;;;8.07;4.32;;;;;;;;;;5002661;28;20711;-75
2021/10/19 02:50:38;;;;;;;5.88;4.93;;;;;;;;;;5002521;28;20198;-76
2021/10/19 02:53:05;;;;;;;6.75;4.63;;;;;;;;;;5001679;28;20194;-75
2021/10/19 02:55:32;;;;;;;4.55;4.15;;;;;;;;;;5005868;28;20664;-76
2021/10/19 02:57:59;;;;;;;4.50;4.13;;;;;;;;;;5000075;28;20259;-76
2021/10/19 03:00:26;;;;;;;6.07;5.47;;;;;;;;;;5000513;28;20612;-75
2021/10/19 03:02:54;;;;;;;6.15;4.70;;;;;;;;;;5003855;28;20214;-75
2021/10/19 03:05:21;;;;;;;5.85;4.00;;;;;;;;;;5009569;28;20224;-75
2021/10/19 03:07:48;;;;;;;5.22;3.75;;;;;;;;;;5011922;28;20327;-75
2021/10/19 03:10:15;;;;;;;5.10;4.60;;;;;;;;;;5004898;28;20251;-74
2021/10/19 03:12:42;;;;;;;5.03;4.53;;;;;;;;;;5005770;28;20194;-75
2021/10/19 03:15:09;;;;;;;5.85;4.20;;;;;;;;;;5002203;28;20197;-75
2021/10/19 03:17:36;;;;;;;4.80;4.20;;;;;;;;;;5003348;28;20272;-75
2021/10/19 03:20:06;;;;;;;4.68;4.20;;;;;;;;;;5003040;28;20201;-74
2021/10/19 03:22:33;;;;;;;4.68;4.25;;;;;;;;;;4989114;28;20600;-75
2021/10/19 03:25:00;;;;;;;4.53;4.00;;;;;;;;;;5000214;28;20229;-75
2021/10/19 03:27:27;;;;;;;5.25;4.30;;;;;;;;;;5010282;28;20569;-75
2021/10/19 03:29:54;;;;;;;4.90;4.40;;;;;;;;;;5004368;28;20229;-74
2021/10/19 03:32:21;;;;;;;6.65;5.05;;;;;;;;;;4998836;28;20251;-76
2021/10/19 03:34:48;;;;;;;5.70;5.10;;;;;;;;;;4998125;28;20189;-75
2021/10/19 03:37:16;;;;;;;4.28;3.88;;;;;;;;;;4992404;28;20197;-75
2021/10/19 03:39:43;;;;;;;4.53;4.22;;;;;;;;;;4992272;28;20279;-74
2021/10/19 03:42:10;;;;;;;4.55;4.15;;;;;;;;;;4995137;28;20244;-76
2021/10/19 03:44:37;;;;;;;4.25;3.85;;;;;;;;;;4998987;28;20205;-76
2021/10/19 03:47:05;;;;;;;4.25;3.85;;;;;;;;;;4992312;28;20202;-75
2021/10/19 03:49:32;;;;;;;4.07;3.25;;;;;;;;;;4986265;28;20202;-75
2021/10/19 03:51:59;;;;;;;5.00;4.38;;;;;;;;;;4999155;28;20194;-74
2021/10/19 03:54:27;;;;;;;5.18;4.68;;;;;;;;;;5002855;28;20216;-75
2021/10/19 03:56:54;;;;;;;5.40;4.65;;;;;;;;;;4999383;28;20205;-76
2021/10/19 03:59:21;;;;;;;4.30;3.90;;;;;;;;;;5000179;28;20197;-76
2021/10/19 04:01:48;;;;;;;4.57;4.18;;;;;;;;;;4995473;28;20193;-76
2021/10/19 04:04:15;;;;;;;6.25;5.07;;;;;;;;;;4999008;28;20584;-75
2021/10/19 04:06:43;;;;;;;5.32;4.82;;;;;;;;;;5003538;28;20198;-74
2021/10/19 04:09:10;;;;;;;4.22;3.83;;;;;;;;;;4999447;28;20233;-76
2021/10/19 04:11:38;;;;;;;5.60;4.78;;;;;;;;;;4994003;28;20201;-75
2021/10/19 04:14:05;;;;;;;5.03;4.53;;;;;;;;;;4994485;28;20244;-76
2021/10/19 04:16:34;;;;;;;5.97;5.47;;;;;;;;;;4993055;28;20201;-76
2021/10/19 04:19:01;;;;;;;5.40;4.95;;;;;;;;;;4994144;28;20197;-75
2021/10/19 04:21:28;;;;;;;5.90;5.35;;;;;;;;;;5000369;28;20198;-76
2021/10/19 04:23:55;;;;;;;5.80;4.80;;;;;;;;;;4997946;28;20233;-75
2021/10/19 04:26:23;;;;;;;5.50;4.97;;;;;;;;;;5003810;28;20636;-74
2021/10/19 04:28:51;;;;;;;6.60;5.45;;;;;;;;;;5001838;28;20189;-74
2021/10/19 04:31:18;;;;;;;5.00;4.30;;;;;;;;;;4996480;28;20248;-74
2021/10/19 04:33:45;;;;;;;6.18;5.05;;;;;;;;;;5002122;28;20657;-74
2021/10/19 04:36:12;;;;;;;6.75;4.88;;;;;;;;;;4994948;28;20201;-75
2021/10/19 04:38:39;;;;;;;5.88;4.72;;;;;;;;;;4987104;28;20205;-74
2021/10/19 04:41:07;;;;;;;5.45;4.85;;;;;;;;;;4991921;28;20557;-74
2021/10/19 04:43:34;;;;;;;5.47;4.97;;;;;;;;;;4985266;28;20261;-74
2021/10/19 04:46:02;;;;;;;5.85;5.00;;;;;;;;;;4989363;28;20209;-74
2021/10/19 04:48:29;;;;;;;5.88;5.10;;;;;;;;;;4989195;28;20197;-75
2021/10/19 04:50:56;;;;;;;5.47;4.97;;;;;;;;;;4993273;28;20201;-76
2021/10/19 04:53:23;;;;;;;5.75;5.03;;;;;;;;;;4987869;28;20198;-76
2021/10/19 04:55:51;;;;;;;5.65;5.15;;;;;;;;;;4991760;28;20248;-77
2021/10/19 04:58:18;;;;;;;5.05;4.55;;;;;;;;;;4991417;28;20700;-76
2021/10/19 05:00:47;;;;;;;5.35;4.50;;;;;;;;;;4992988;28;20201;-76
2021/10/19 05:03:16;;;;;;;5.03;4.57;;;;;;;;;;4991236;28;20576;-76
2021/10/19 05:05:44;;;;;;;6.55;5.30;;;;;;;;;;4982884;28;20193;-76
2021/10/19 05:08:11;;;;;;;5.30;4.90;;;;;;;;;;4988345;28;20288;-76
2021/10/19 05:10:38;;;;;;;5.05;4.55;;;;;;;;;;4987878;28;20198;-76
2021/10/19 05:13:05;;;;;;;5.47;4.93;;;;;;;;;;4988943;28;20205;-76
2021/10/19 05:15:33;;;;;;;4.72;4.32;;;;;;;;;;4987930;28;20217;-76
2021/10/19 05:18:00;;;;;;;5.82;5.32;;;;;;;;;;4988139;28;20929;-76
2021/10/19 05:20:28;;;;;;;5.95;5.35;;;;;;;;;;4990523;28;20198;-75
2021/10/19 05:22:56;;;;;;;5.50;5.00;;;;;;;;;;4989265;28;20237;-77
2021/10/19 05:25:23;;;;;;;6.28;4.65;;;;;;;;;;4987698;28;20213;-77
2021/10/19 05:27:51;;;;;;;4.38;3.97;;;;;;;;;;4989659;28;20546;-77
2021/10/19 05:30:19;;;;;;;4.93;4.53;;;;;;;;;;4990088;28;20220;-77
2021/10/19 05:32:46;;;;;;;5.00;4.50;;;;;;;;;;4988855;28;20216;-76
2021/10/19 05:35:14;;;;;;;4.72;4.20;;;;;;;;;;4986747;28;20193;-77
2021/10/19 05:37:42;;;;;;;4.78;4.35;;;;;;;;;;4989160;28;20311;-77
2021/10/19 05:40:10;;;;;;;4.78;4.38;;;;;;;;;;4989713;28;20197;-77
2021/10/19 05:42:38;;;;;;;4.80;4.40;;;;;;;;;;4989298;28;20205;-77
2021/10/19 05:45:05;;;;;;;5.45;4.80;;;;;;;;;;4988140;28;20297;-77
2021/10/19 05:47:32;;;;;;;4.22;3.83;;;;;;;;;;4989223;28;20201;-77
2021/10/19 05:50:00;;;;;;;4.38;3.97;;;;;;;;;;4979629;28;20689;-78
2021/10/19 05:52:27;;;;;;;4.18;3.88;;;;;;;;;;4979431;28;20198;-77
2021/10/19 05:54:56;;;;;;;4.80;4.30;;;;;;;;;;4985205;28;20259;-78
2021/10/19 05:57:23;;;;;;;4.90;3.83;;;;;;;;;;4989345;28;20252;-77
2021/10/19 05:59:50;;;;;;;5.00;4.50;;;;;;;;;;4988592;28;20193;-78
2021/10/19 06:02:17;;;;;;;5.10;4.60;;;;;;;;;;4986565;28;20206;-78
2021/10/19 06:04:44;;;;;;;4.55;4.15;;;;;;;;;;4988399;28;20811;-78
2021/10/19 06:07:11;;;;;;;3.90;3.60;;;;;;;;;;4988674;28;20201;-78
2021/10/19 06:09:38;;;;;;;4.55;4.15;;;;;;;;;;4988130;28;20272;-78
2021/10/19 06:12:08;;;;;;;5.25;4.75;;;;;;;;;;4992231;28;20252;-76
2021/10/19 06:14:35;;;;;;;5.40;4.90;;;;;;;;;;4992472;28;20293;-76
2021/10/19 06:17:02;;;;;;;4.15;3.75;;;;;;;;;;4992147;28;20256;-77
2021/10/19 06:19:29;;;;;;;5.18;4.10;;;;;;;;;;4991432;28;20665;-77
2021/10/19 06:21:56;;;;;;;6.65;3.95;;;;;;;;;;4993709;28;20197;-78
2021/10/19 06:24:23;;;;;;;4.72;4.32;;;;;;;;;;4991124;28;20746;-77
2021/10/19 06:26:50;;;;;;;4.10;3.70;;;;;;;;;;4991087;28;20201;-77
2021/10/19 06:29:18;;;;;;;4.28;3.88;;;;;;;;;;4992075;28;20248;-77
2021/10/19 06:31:45;;;;;;;4.28;3.85;;;;;;;;;;4994729;28;20720;-78
2021/10/19 06:34:12;;;;;;;4.18;3.78;;;;;;;;;;4986858;28;20197;-78
2021/10/19 06:36:40;;;;;;;4.35;3.75;;;;;;;;;;4994477;28;20661;-78
2021/10/19 06:39:07;;;;;;;5.05;4.10;;;;;;;;;;4981395;28;20198;-77
2021/10/19 06:41:34;;;;;;;3.83;3.35;;;;;;;;;;4985246;28;20198;-77
2021/10/19 06:44:01;;;;;;;4.40;4.00;;;;;;;;;;4994401;28;20225;-77
2021/10/19 06:46:29;;;;;;;3.53;3.17;;;;;;;;;;4990213;28;20198;-77
2021/10/19 06:48:56;;;;;;;3.53;3.22;;;;;;;;;;4988511;28;20259;-77
2021/10/19 06:51:24;;;;;;;4.20;3.60;;;;;;;;;;4992302;28;20201;-77
2021/10/19 06:53:51;;;;;;;4.28;3.85;;;;;;;;;;4982014;28;20252;-74
2021/10/19 06:56:18;;;;;;;4.30;3.75;;;;;;;;;;4994825;28;20201;-77
2021/10/19 06:58:45;;;;;;;4.03;3.63;;;;;;;;;;4987993;28;20194;-77
2021/10/19 07:01:12;;;;;;;3.78;3.38;;;;;;;;;;4987353;28;20642;-76
2021/10/19 07:03:40;;;;;;;3.97;3.60;;;;;;;;;;4985908;28;20689;-77
2021/10/19 07:06:07;;;;;;;4.05;3.42;;;;;;;;;;4991990;28;20264;-76
2021/10/19 07:08:34;;;;;;;3.72;3.33;;;;;;;;;;4993899;28;20660;-76
2021/10/19 07:11:02;;;;;;;4.05;3.15;;;;;;;;;;4993723;28;20220;-75
2021/10/19 07:13:29;;;;;;;5.28;3.10;;;;;;;;;;4993722;28;20194;-76
2021/10/19 07:15:56;;;;;;;3.90;3.15;;;;;;;;;;4992460;28;20209;-76
2021/10/19 07:18:24;;;;;;;2.92;2.63;;;;;;;;;;4990100;28;20217;-76
2021/10/19 07:20:52;;;;;;;3.40;3.10;;;;;;;;;;4991236;28;20205;-76
2021/10/19 07:23:20;;;;;;;2.85;2.63;;;;;;;;;;4990155;28;20275;-76
2021/10/19 07:25:47;;;;;;;3.50;3.20;;;;;;;;;;4991515;28;20202;-76
2021/10/19 07:28:14;;;;;;;4.15;2.75;;;;;;;;;;4991493;28;20731;-76
2021/10/19 07:30:41;;;;;;;3.38;3.08;;;;;;;;;;4991271;28;20214;-75
2021/10/19 07:33:09;;;;;;;2.60;2.38;;;;;;;;;;4992097;28;20255;-76
2021/10/19 07:35:36;;;;;;;3.55;2.90;;;;;;;;;;4993344;28;20224;-76
2021/10/19 07:38:04;;;;;;;4.20;3.30;;;;;;;;;;4984483;28;20194;-76
2021/10/19 07:40:31;;;;;;;4.70;3.58;;;;;;;;;;4983607;28;20201;-76
2021/10/19 07:42:58;;;;;;;3.33;3.03;;;;;;;;;;4991585;28;20205;-76
2021/10/19 07:45:26;;;;;;;4.57;2.55;;;;;;;;;;4995306;28;20673;-76
2021/10/19 07:47:54;;;;;;;2.55;2.35;;;;;;;;;;4991800;28;20284;-77
2021/10/19 07:50:22;;;;;;;3.45;3.15;;;;;;;;;;4985703;28;20704;-76
2021/10/19 07:52:51;;;;;;;2.90;2.70;;;;;;;;;;4989206;28;20202;-75
2021/10/19 07:55:20;;;;;;;2.88;2.58;;;;;;;;;;4992523;28;20612;-77
2021/10/19 07:57:48;;;;;;;2.67;2.28;;;;;;;;;;4980757;28;20201;-76
2021/10/19 08:00:16;;;;;;;2.97;2.72;;;;;;;;;;4989969;28;20256;-76
2021/10/19 08:02:43;;;;;;;2.50;2.30;;;;;;;;;;4989348;28;20198;-76
2021/10/19 08:05:13;;;;;;;3.20;2.90;;;;;;;;;;4990254;28;20221;-77
2021/10/19 08:07:40;;;;;;;3.05;2.75;;;;;;;;;;4990027;28;20668;-77
2021/10/19 08:10:07;;;;;;;2.90;2.70;;;;;;;;;;4974176;28;20292;-76
2021/10/19 08:12:36;;;;;;;2.85;2.65;;;;;;;;;;4987885;28;20197;-76
2021/10/19 08:15:03;;;;;;;2.55;2.35;;;;;;;;;;4993368;28;20645;-76
2021/10/19 08:17:30;;;;;;;2.92;2.25;;;;;;;;;;4992481;28;20206;-77
2021/10/19 08:19:59;;;;;;;2.60;2.40;;;;;;;;;;4992297;28;20202;-76
2021/10/19 08:22:27;;;;;;;2.30;2.10;;;;;;;;;;4992599;28;20252;-76
2021/10/19 08:24:54;;;;;;;2.47;2.25;;;;;;;;;;4984632;28;20221;-76
2021/10/19 08:27:21;;;;;;;3.65;2.00;;;;;;;;;;4993211;28;20202;-76
2021/10/19 08:29:50;;;;;;;2.13;1.92;;;;;;;;;;4985458;28;20644;-76
2021/10/19 08:32:17;;;;;;;2.10;1.88;;;;;;;;;;4989242;28;20558;-78
2021/10/19 08:34:44;;;;;;;2.22;2.08;;;;;;;;;;4989313;28;20259;-77
2021/10/19 08:37:11;;;;;;;2.45;2.10;;;;;;;;;;4990055;28;20202;-76
2021/10/19 08:39:38;;;;;;;2.40;2.20;;;;;;;;;;4988300;28;20221;-77
2021/10/19 08:42:05;;;;;;;2.40;2.03;;;;;;;;;;4990620;28;20267;-77
2021/10/19 08:44:32;;;;;;;2.25;2.05;;;;;;;;;;4990082;28;20746;-77
2021/10/19 08:47:01;;;;;;;2.53;2.33;;;;;;;;;;4991228;28;20573;-78
2021/10/19 08:49:28;;;;;;;2.30;2.10;;;;;;;;;;4992884;28;20208;-78
2021/10/19 08:51:55;;;;;;;2.05;1.88;;;;;;;;;;4987681;28;20201;-77
2021/10/19 08:54:23;;;;;;;1.70;1.60;;;;;;;;;;4977445;28;20731;-78
2021/10/19 08:56:50;;;;;;;2.50;2.30;;;;;;;;;;4991322;28;20193;-77
2021/10/19 08:59:21;;;;;;;2.22;2.03;;;;;;;;;;4986866;28;20252;-77
2021/10/19 09:01:48;;;;;;;1.88;1.67;;;;;;;;;;4982160;28;20202;-77
2021/10/19 09:04:17;;;;;;;2.40;1.67;;;;;;;;;;4988482;28;20213;-77
2021/10/19 09:06:44;;;;;;;1.85;1.58;;;;;;;;;;4987178;28;20706;-77
2021/10/19 09:09:12;;;;;;;1.90;1.80;;;;;;;;;;4987619;28;20205;-76
2021/10/19 09:11:40;;;;;;;2.30;2.10;;;;;;;;;;4990817;28;20256;-77
2021/10/19 09:14:07;;;;;;;1.95;1.70;;;;;;;;;;4991741;28;20205;-77
2021/10/19 09:16:38;;;;;;;1.88;1.77;;;;;;;;;;4991244;28;20205;-78
2021/10/19 09:19:06;;;;;;;1.88;1.75;;;;;;;;;;4978239;28;20295;-78
2021/10/19 09:21:35;;;;;;;4.65;1.40;;;;;;;;;;4986498;28;20616;-78
2021/10/19 09:24:22;;;;;;;3.83;2.30;;;;;;;;;;4988391;28;20213;-76
2021/10/19 09:26:52;;;;;;;1.70;1.60;;;;;;;;;;4988935;28;20260;-75
2021/10/19 09:29:21;;;;;;;2.15;2.05;;;;;;;;;;4989465;28;20194;-75
2021/10/19 09:31:50;;;;;;;2.35;1.50;;;;;;;;;;4986670;28;20611;-75
2021/10/19 09:34:17;;;;;;;2.35;1.80;;;;;;;;;;4989304;28;20637;-76
2021/10/19 09:36:46;;;;;;;1.40;1.30;;;;;;;;;;4989857;28;20194;-76
2021/10/19 09:39:13;;;;;;;1.85;1.70;;;;;;;;;;4984858;28;20205;-75
2021/10/19 09:41:43;;;;;;;2.15;2.00;;;;;;;;;;4988841;28;20700;-74
2021/10/19 09:44:11;;;;;;;1.45;1.35;;;;;;;;;;4987584;28;20213;-76
2021/10/19 09:46:38;;;;;;;1.65;1.45;;;;;;;;;;4991909;28;20205;-75
2021/10/19 09:49:05;;;;;;;1.77;1.67;;;;;;;;;;4992222;28;20236;-75
2021/10/19 09:51:37;;;;;;;1.45;1.35;;;;;;;;;;4992466;28;20202;-76
2021/10/19 09:54:07;;;;;;;2.00;1.13;;;;;;;;;;4991260;28;20544;-76
2021/10/19 09:56:35;;;;;;;1.65;1.10;;;;;;;;;;4995948;28;20731;-75
2021/10/19 09:59:02;;;;;;;1.52;1.42;;;;;;;;;;4987825;28;20213;-76
2021/10/19 10:01:29;;;;;;;1.58;1.48;;;;;;;;;;4985297;28;20201;-75
2021/10/19 10:03:57;;;;;;;1.52;1.25;;;;;;;;;;4986014;28;20264;-76
2021/10/19 10:06:24;;;;;;;1.50;1.40;;;;;;;;;;4992753;28;20232;-76
2021/10/19 10:08:51;;;;;;;1.55;1.42;;;;;;;;;;4991513;28;20193;-76
2021/10/19 10:11:21;;;;;;;1.50;1.30;;;;;;;;;;4990104;28;20221;-74
2021/10/19 10:13:55;;;;;;;1.60;1.50;;;;;;;;;;4991353;28;20198;-76
2021/10/19 10:16:23;;;;;;;1.70;1.50;;;;;;;;;;4992119;28;20201;-75
2021/10/19 10:18:50;;;;;;;1.58;1.48;;;;;;;;;;4993631;28;20194;-76
2021/10/19 10:21:17;;;;;;;1.60;1.23;;;;;;;;;;4992001;28;20610;-76
2021/10/19 10:23:44;;;;;;;2.30;1.40;;;;;;;;;;4990766;28;20205;-76
2021/10/19 10:26:23;;;;;;;1.58;1.48;;;;;;;;;;4990972;28;20213;-75
2021/10/19 10:28:50;;;;;;;1.70;1.60;;;;;;;;;;4992995;28;20634;-76
2021/10/19 10:31:19;;;;;;;2.92;1.38;;;;;;;;;;4992687;28;20220;-76
2021/10/19 10:33:47;;;;;;;1.60;1.50;;;;;;;;;;4988407;28;20201;-75
2021/10/19 10:36:15;;;;;;;1.35;1.25;;;;;;;;;;4991549;28;20765;-76
2021/10/19 10:38:53;;;;;;;1.90;1.75;;;;;;;;;;4990643;28;20194;-75
2021/10/19 10:41:23;;;;;;;1.92;1.20;;;;;;;;;;4991107;28;20194;-76
2021/10/19 10:43:58;;;;;;;1.42;1.33;;;;;;;;;;4990398;28;20193;-76
2021/10/19 10:46:25;;;;;;;1.40;1.10;;;;;;;;;;4990631;28;20344;-75
2021/10/19 10:48:54;;;;;;;1.60;1.50;;;;;;;;;;4992047;28;20252;-76
2021/10/19 10:51:27;;;;;;;1.30;1.15;;;;;;;;;;4990631;28;20193;-76
2021/10/19 10:53:54;;;;;;;1.45;1.10;;;;;;;;;;4989124;28;20297;-75
2021/10/19 10:56:23;;;;;;;1.63;1.52;;;;;;;;;;4990781;28;20546;-75
2021/10/19 10:58:50;;;;;;;3.80;1.33;;;;;;;;;;4990857;28;20259;-76
2021/10/19 11:01:19;;;;;;;1.63;1.10;;;;;;;;;;4991259;28;20613;-75
2021/10/19 11:03:46;;;;;;;2.13;1.45;;;;;;;;;;4992896;28;20269;-77
2021/10/19 11:06:14;;;;;;;2.10;1.23;;;;;;;;;;4994080;28;20613;-75
2021/10/19 11:08:41;;;;;;;1.92;1.73;;;;;;;;;;4989952;28;20210;-75
2021/10/19 11:11:09;;;;;;;1.38;1.10;;;;;;;;;;4989744;28;20661;-75
2021/10/19 11:13:49;;;;;;;1.25;1.10;;;;;;;;;;4989824;28;20252;-76
2021/10/19 11:16:16;;;;;;;2.55;1.08;;;;;;;;;;4988486;28;20201;-75
2021/10/19 11:18:43;;;;;;;1.40;1.30;;;;;;;;;;4981354;28;20206;-76
2021/10/19 11:21:10;;;;;;;2.45;1.45;;;;;;;;;;4982317;28;20566;-75
2021/10/19 11:23:41;;;;;;;2.47;1.40;;;;;;;;;;4986927;28;20198;-75
2021/10/19 11:26:09;;;;;;;1.50;1.20;;;;;;;;;;4988602;28;20229;-75
2021/10/19 11:28:37;;;;;;;1.90;1.10;;;;;;;;;;4990730;28;20198;-75
2021/10/19 11:31:06;;;;;;;1.02;0.93;;;;;;;;;;4991036;28;20257;-75
2021/10/19 11:33:36;;;;;;;1.48;1.13;;;;;;;;;;4989581;28;20248;-76
2021/10/19 11:36:04;;;;;;;1.10;1.00;;;;;;;;;;4990234;28;20606;-76
2021/10/19 11:38:31;;;;;;;4.55;1.13;;;;;;;;;;4990248;28;20214;-77
2021/10/19 11:41:06;;;;;;;1.40;1.13;;;;;;;;;;4991982;28;20198;-75
2021/10/19 11:43:35;;;;;;;2.63;1.40;;;;;;;;;;4989921;28;20296;-75
2021/10/19 11:46:07;;;;;;;1.30;1.00;;;;;;;;;;4988669;28;20221;-75
2021/10/19 11:48:35;;;;;;;1.20;1.00;;;;;;;;;;4988822;28;20651;-76
2021/10/19 11:51:02;;;;;;;1.45;1.35;;;;;;;;;;4989989;28;20193;-76
2021/10/19 11:53:29;;;;;;;2.40;1.17;;;;;;;;;;4989350;28;20667;-76
2021/10/19 11:55:57;;;;;;;1.00;0.90;;;;;;;;;;4989435;28;20206;-75
2021/10/19 11:58:24;;;;;;;1.85;1.15;;;;;;;;;;4990032;28;20189;-76
2021/10/19 12:00:52;;;;;;;2.75;1.10;;;;;;;;;;4989586;28;20715;-76
2021/10/19 12:03:21;;;;;;;1.92;1.10;;;;;;;;;;4988889;28;20242;-75
2021/10/19 12:05:48;;;;;;;1.10;0.85;;;;;;;;;;4990808;28;20209;-77
2021/10/19 12:08:15;;;;;;;1.42;1.10;;;;;;;;;;4987537;28;20205;-76
2021/10/19 12:10:48;;;;;;;1.38;1.10;;;;;;;;;;4989737;28;20209;-76
2021/10/19 12:13:15;;;;;;;1.10;1.00;;;;;;;;;;4990335;28;20285;-76
2021/10/19 12:15:42;;;;;;;1.17;1.00;;;;;;;;;;4988475;28;20209;-77
2021/10/19 12:18:15;;;;;;;1.10;1.00;;;;;;;;;;4988981;28;20202;-77
2021/10/19 12:20:44;;;;;;;1.80;1.33;;;;;;;;;;4989342;28;20202;-77
2021/10/19 12:23:12;;;;;;;1.67;1.15;;;;;;;;;;4988225;28;20198;-76
2021/10/19 12:25:40;;;;;;;1.08;0.90;;;;;;;;;;4988309;28;20220;-76
2021/10/19 12:28:07;;;;;;;1.13;0.95;;;;;;;;;;4988388;28;20225;-77
2021/10/19 12:30:38;;;;;;;1.20;1.10;;;;;;;;;;4989928;28;20758;-77
2021/10/19 12:33:16;;;;;;;1.90;0.90;;;;;;;;;;4989421;28;20337;-75
2021/10/19 12:35:51;;;;;;;1.10;0.90;;;;;;;;;;4984272;28;20194;-75
2021/10/19 12:38:18;;;;;;;1.48;1.08;;;;;;;;;;4982250;28;20653;-76
2021/10/19 12:40:45;;;;;;;1.10;0.80;;;;;;;;;;4983527;28;20225;-76
2021/10/19 12:43:12;;;;;;;1.73;1.20;;;;;;;;;;4988082;28;20190;-76
2021/10/19 12:45:39;;;;;;;1.40;1.20;;;;;;;;;;4986906;28;20214;-76
2021/10/19 12:48:07;;;;;;;0.98;0.88;;;;;;;;;;4990291;28;20680;-75
2021/10/19 12:50:35;;;;;;;1.00;0.90;;;;;;;;;;4988956;28;20707;-76
2021/10/19 12:53:03;;;;;;;1.52;1.00;;;;;;;;;;4986663;28;20202;-76
2021/10/19 12:55:30;;;;;;;1.10;0.93;;;;;;;;;;4989116;28;20624;-76
2021/10/19 12:57:57;;;;;;;1.30;1.20;;;;;;;;;;4989199;28;20265;-76
2021/10/19 13:00:25;;;;;;;1.15;1.00;;;;;;;;;;4986116;28;20284;-76
2021/10/19 13:02:52;;;;;;;1.48;1.25;;;;;;;;;;4987968;28;20255;-77
2021/10/19 13:05:19;;;;;;;1.30;1.20;;;;;;;;;;4990420;28;20220;-77
2021/10/19 13:07:46;;;;;;;2.22;1.30;;;;;;;;;;4986097;28;20198;-76
2021/10/19 13:10:15;;;;;;;1.63;1.50;;;;;;;;;;4989263;28;20193;-75
2021/10/19 13:12:42;;;;;;;1.60;1.50;;;;;;;;;;4987105;28;20292;-77
2021/10/19 13:15:09;;;;;;;1.67;1.58;;;;;;;;;;4989521;28;20194;-78
2021/10/19 13:17:36;;;;;;;1.83;1.50;;;;;;;;;;4985763;28;20669;-76
2021/10/19 13:20:04;;;;;;;2.38;2.17;;;;;;;;;;4988240;28;20198;-77
2021/10/19 13:22:31;;;;;;;1.67;1.58;;;;;;;;;;4989363;28;20197;-75
2021/10/19 13:24:58;;;;;;;2.28;1.50;;;;;;;;;;4988855;28;20233;-74
2021/10/19 13:27:26;;;;;;;2.00;1.90;;;;;;;;;;4988344;28;20616;-76
2021/10/19 13:29:53;;;;;;;1.63;1.52;;;;;;;;;;4988021;28;20267;-76
2021/10/19 13:32:20;;;;;;;2.58;1.92;;;;;;;;;;4986570;28;20198;-75
2021/10/19 13:34:47;;;;;;;1.88;1.70;;;;;;;;;;4987679;28;20204;-74
2021/10/19 13:37:15;;;;;;;2.38;2.17;;;;;;;;;;4989746;28;20201;-75
2021/10/19 13:39:42;;;;;;;2.25;2.05;;;;;;;;;;4986574;28;20667;-75
2021/10/19 13:42:10;;;;;;;2.00;1.65;;;;;;;;;;4987367;28;20244;-75
2021/10/19 13:44:38;;;;;;;3.50;2.60;;;;;;;;;;4988383;28;20649;-76
2021/10/19 13:47:05;;;;;;;2.35;1.65;;;;;;;;;;4988475;28;20233;-75
2021/10/19 13:49:32;;;;;;;2.45;2.10;;;;;;;;;;4985492;28;20546;-74
2021/10/19 13:51:59;;;;;;;2.95;2.20;;;;;;;;;;4986401;28;20194;-75
2021/10/19 13:54:28;;;;;;;3.00;2.63;;;;;;;;;;4988183;28;20615;-75
2021/10/19 13:56:55;;;;;;;1.95;1.85;;;;;;;;;;4982919;28;20205;-75
2021/10/19 13:59:22;;;;;;;2.95;1.80;;;;;;;;;;4978590;28;20285;-75
2021/10/19 14:01:50;;;;;;;2.67;2.35;;;;;;;;;;4981267;28;20265;-76
2021/10/19 14:04:17;;;;;;;2.80;2.60;;;;;;;;;;4988326;28;20201;-74
2021/10/19 14:06:44;;;;;;;2.30;2.10;;;;;;;;;;4988766;28;20684;-75
2021/10/19 14:09:11;;;;;;;2.55;2.35;;;;;;;;;;4988521;28;20252;-75
2021/10/19 14:11:39;;;;;;;4.63;2.33;;;;;;;;;;4986143;28;20665;-74
2021/10/19 14:14:11;;;;;;;2.50;2.30;;;;;;;;;;4989256;28;20202;-75
2021/10/19 14:16:39;;;;;;;3.58;2.90;;;;;;;;;;4986159;28;20571;-75
2021/10/19 14:19:07;;;;;;;2.03;1.92;;;;;;;;;;4988232;28;20656;-75
2021/10/19 14:21:35;;;;;;;6.55;3.85;;;;;;;;;;4987364;28;20201;-74
2021/10/19 14:24:02;;;;;;;2.90;2.28;;;;;;;;;;4987283;28;20225;-75
2021/10/19 14:26:29;;;;;;;3.05;2.80;;;;;;;;;;4987624;28;20221;-74
2021/10/19 14:28:56;;;;;;;3.38;3.08;;;;;;;;;;4988133;28;20669;-74
2021/10/19 14:31:23;;;;;;;2.50;2.30;;;;;;;;;;4988466;28;20221;-74
2021/10/19 14:33:50;;;;;;;3.15;2.90;;;;;;;;;;4990298;28;20221;-75
2021/10/19 14:36:19;;;;;;;3.88;3.20;;;;;;;;;;4991780;28;20210;-74
2021/10/19 14:38:46;;;;;;;3.08;2.88;;;;;;;;;;4991365;28;20202;-75
2021/10/19 14:41:13;;;;;;;3.58;3.28;;;;;;;;;;4991520;28;20275;-77
2021/10/19 14:43:40;;;;;;;2.60;2.40;;;;;;;;;;4993230;28;20240;-75
2021/10/19 14:46:07;;;;;;;3.03;2.83;;;;;;;;;;4991066;28;20287;-75